Latest Observation

67 Stations

Daily Data
as of 5/8/26 6:30 AM PDT
Station Date Daily Max Temp (°F) Daily Min Temp (°F) Daily Max RH (%) Daily Min RH (%) Wind Spd (mph) Wind Dir (°) Daily Max Wind (mph) Max Wind Dir (°) Time of Max Wind Daily Rain (In) Weekly Precip (In) Season Precip (In) Soil Moist (%) Fuel Temp (°F) Fuel Moisture (%) MinBV Day (V)
Hobart Mills 12/23/25 51.8   11.3 33.9   2.1 88   12 42   34 2.1   1.7 SW | 224 18.4   8.6 WSW | 240 2307 0.65 6.21 15.12 - 37.6   2.8 42   19 8.0   0.7
Prosser Dam 5/7/26 70.2   0.6 36.9   0.8 98   0 27   1 3.8   0.9 WSW | 240 21.7   1.6 WSW | 258 1537 0.00 0.83 8.47 23.9   1.0 56.9   1.0 11   6 12.6   0.0
West Incline Village 5/7/26 65.2   2.2 44.8   3.1 86   8 27   1 3.1   0.9 NNE | 31 19.0   6.1 S | 177 1358 0.00 1.36 7.94 33.7   0.8 58.0   1.4 10   8 12.5   0.0
Incline Village (Fairview Blvd) 5/7/26 64.9   1.2 45.7   4.5 91   6 30   1 1.6   0.6 SSW | 211 18.9   8.7 WSW | 253 1613 0.00 1.30 7.48 26.7   0.6 58.8   2.1 11   7 12.6   0.1
Incline Village (Diamond Peak) 5/7/26 62.6   2.2 46.0   3.3 86   1 32   1 0.0   0.0 N | 0 15.8   5.3 SE | 141 1157 0.00 0.10 0.51 9.6   0.2 -11.4   0.1 - 12.4   0.1
Incline Village (Mill Creek) 5/7/26 64.9   0.5 45.0   4.6 93   1 31   5 1.4   0.7 WSW | 240 16.4   7.8 SSW | 205 1448 0.00 1.27 7.18 11.3   0.2 - - 12.4   0.1
Incline Village (Lakeshore Blvd) 5/7/26 62.0   0.2 40.2   3.8 98   1 52   10 2.8   1.6 SSW | 194 12.2   6.1 SSW | 206 1657 0.00 1.15 7.20 33.5   0.7 61.7   2.6 17   2 12.4   0.0
Glenbrook 5/7/26 64.2   0.9 41.6   3.2 96   1 43   13 1.8   0.3 W | 265 6.6   1.2 WNW | 283 1531 0.00 1.09 5.88 44.3   0.0 54.6   2.0 15   6 12.6   0.0
Zephyr Cove 5/7/26 66.7   1.6 43.7   2.1 93   4 29   2 0.0   0.0 N | 0 7.0   2.0 S | 182 1200 0.00 0.02 0.68 - 43.6   2.9 - 12.6   0.2
Kingsbury Grade 5/7/26 68.3   2.5 41.3   3.2 94   2 28   1 1.2   0.0 WSW | 252 10.9   1.9 SW | 230 1518 0.00 0.95 5.82 7.0   0.2 57.0   3.3 10   5 12.5   0.0
South Daggett Pass (Ridge) 5/7/26 61.8   1.5 44.8   3.4 84   8 31   5 3.2   1.4 WNW | 283 22.5   11.6 W | 259 1526 0.00 0.73 4.05 6.8   0.1 54.8   1.0 11   6 12.5   0.0
Palomino Valley 5/7/26 80.3   1.9 45.8   0.0 85   2 14   1 6.4   3.4 W | 266 28.7   8.0 WSW | 252 1138 0.00 0.27 1.41 7.0   0.1 66.4   1.0 2   0 12.6   0.0
East Cold Springs 5/7/26 75.0   1.9 49.8   2.4 73   8 20   1 10.0   2.7 W | 274 24.8   4.5 W | 274 1519 0.00 0.68 2.09 1.8   0.1 65.8   0.9 10   3 12.7   0.0
Peavine 5/7/26 71.7   2.1 52.2   2.7 61   8 20   1 6.1   1.4 SW | 231 25.3   6.8 SSW | 198 2054 0.00 0.67 2.14 - - - 12.5   0.0
West Verdi Peak 5/7/26 70.1   0.2 47.6   4.6 78   10 22   3 3.2   0.6 WSW | 256 23.7   7.6 WNW | 286 1448 0.00 0.78 6.39 21.4   0.8 63.7   0.6 9   4 12.6   0.0
West Verdi 5/7/26 75.0   0.7 49.8   4.4 78   6 18   1 4.8   1.6 WSW | 245 25.2   8.9 W | 264 1437 0.00 0.65 5.92 8.1   0.1 64.6   0.7 11   3 12.6   0.0
South Verdi 5/7/26 72.0   0.4 50.0   3.4 75   2 23   2 18.4   9.8 WSW | 248 34.9   12.4 WSW | 248 1537 0.00 0.57 4.81 16.7   0.2 65.2   1.4 8   2 12.7   0.0
Northwest Reno 5/7/26 75.3   0.2 54.6   1.4 62   6 17   1 15.5   6.7 W | 268 37.6   10.4 W | 271 2212 0.00 0.33 1.33 23.9   0.3 -17.7   0.0 - 12.6   0.0
North Lawton 5/7/26 75.7   1.4 52.7   4.0 67   5 18   0 10.5   4.2 WSW | 239 29.3   2.5 WSW | 252 1515 0.00 0.44 2.14 - - - 12.6   0.0
West Reno (Mogul) 5/7/26 75.4   1.2 50.9   1.4 73   1 12   4 8.0   3.0 WSW | 248 30.3   7.9 SW | 215 2151 0.00 0.34 4.24 37.6   0.5 69.9   1.5 3   2 12.5   0.0
Caughlin (Hunter Lake Trail) 9/15/25 78.6   1.3 52.5   3.7 58   7 23   2 4.2   2.5 S | 173 13.0   20.5 NNE | 31 1309 0.00 0.32 8.05 15.7   0.1 67.4   0.5 7   1 12.7   0.0
ArrowCreek 5/7/26 76.2   2.2 51.6   2.5 68   5 17   1 5.6   0.1 WSW | 246 23.5   4.7 SW | 216 1553 0.00 0.69 5.25 - - - 12.4   0.0
Tracy 5/7/26 82.7   3.6 55.6   1.6 63   5 14   2 9.1   3.5 W | 262 34.6   16.3 W | 260 1614 0.00 0.37 1.23 8.0   0.1 72.1   2.3 8   3 12.7   0.0
Virginia Highlands 5/7/26 72.0   1.9 53.3   2.2 62   4 21   4 4.3   0.4 W | 261 19.0   0.4 SW | 215 1706 0.00 0.44 2.15 8.4   0.3 64.8   1.4 9   4 12.6   0.0
Virginia City 5/7/26 70.0   0.4 54.3   4.8 59   9 20   4 6.2   2.0 SW | 219 27.6   3.4 SSW | 194 1541 0.00 0.41 1.86 8.4   0.1 62.7   0.9 7   4 12.7   0.0
Six Mile Canyon 9/8/25 98.8   16.5 50.2   7.6 44   3 11   1 7.2   0.3 WSW | 252 27.0   4.6 SSE | 159 1325 0.00 0.00 0.89 12.6   0.1 69.7   3.0 4   0 12.4   0.2
Mt Rose Highway 4/29/26 56.6   7.9 35.6   4.1 63   16 31   6 2.2   0.0 NW | 305 10.8   4.2 NE | 35 1152 0.00 0.08 4.93 24.3   0.3 47.6   8.0 3   0 12.4   0.0
Pleasant Valley 5/7/26 75.3   0.4 47.8   2.6 78   5 23   5 5.8   2.4 SSW | 210 25.6   7.8 SSW | 200 1435 0.00 0.49 2.52 2.8   0.0 68.1   2.1 9   4 12.6   0.0
New Washoe City 5/7/26 74.2   0.8 47.3   2.0 77   4 23   6 6.7   2.1 SW | 215 27.3   6.3 WSW | 243 1349 0.00 0.45 1.76 4.5   0.0 65.4   2.2 9   4 12.6   0.1
Franktown Creek 5/7/26 73.6   1.2 46.5   2.5 84   0 15   3 2.9   1.3 SW | 217 27.0   11.8 S | 183 1441 0.00 0.64 5.97 11.2   0.0 61.5   2.9 10   4 12.6   0.0
Musgrove Creek 5/7/26 71.2   0.0 54.1   4.7 65   5 22   3 2.9   0.5 SSW | 204 20.5   8.0 SE | 133 1547 0.00 0.97 8.00 45.0   0.1 64.6   2.4 13   5 12.6   0.0
East Carson 11/22/24 63.8   0.3 41.7   4.6 85   21 21   9 14.9   6.0 SW | 224 46.6   12.7 S | 171 1835 0.05 0.05 4.48 2.5   0.0 53.9   0.3 9   0 12.6   0.0
Kings Canyon 5/7/26 73.0   0.5 47.1   3.9 74   7 23   6 4.1   0.1 S | 188 24.1   2.4 SSW | 211 2111 0.00 0.66 4.52 15.0   0.1 66.8   1.5 6   3 12.6   0.0
Carson City (Voltaire Canyon) 5/7/26 74.2   0.4 54.2   4.4 63   10 21   5 10.2   2.4 SW | 220 27.0   5.2 SW | 229 2321 0.01 1.24 1.33 2.8   0.0 -10.8 - 12.7   0.0
Jacks Valley 5/7/26 74.0   0.6 49.2   4.7 63   19 21   5 6.2   2.0 WSW | 244 31.4   10.8 S | 190 1433 0.00 0.52 2.50 13.8   0.0 64.1   0.4 9   5 12.7   0.0
Genoa 5/7/26 76.7   0.5 47.8   2.0 79   5 22   6 1.9   0.9 SW | 224 22.4   10.3 SE | 138 2150 0.00 0.48 5.22 8.7   1.2 65.3   2.5 11   7 12.3   0.0
South Genoa (Walleys Hot Springs) 5/7/26 77.7   1.2 44.3   1.5 90   4 20   8 4.6   1.2 NW | 318 34.5   13.9 WSW | 251 2145 0.00 0.40 3.35 14.0   0.1 67.2   1.5 8   4 12.5   0.0
SW Gardnerville (HWY 88) 5/7/26 75.9   1.4 41.2   0.4 88   3 17   1 6.0   2.3 WNW | 290 27.4   13.8 W | 271 1556 0.00 0.04 0.60 3.5   0.0 61.9   0.2 10   3 12.5   0.0
Sheridan 5/7/26 77.7   2.9 44.6   0.7 77   6 13   3 5.5   2.5 WSW | 256 29.6   17.8 W | 261 1455 0.00 0.40 3.46 5.1   0.8 66.4   0.6 9   4 12.6   0.0
Ruhenstroth 5/7/26 78.4   3.1 44.9   2.4 73   13 15   2 4.2   1.2 WSW | 252 23.1   6.1 S | 183 1627 0.00 0.64 2.06 12.6   0.0 64.5   3.0 9   5 12.7   0.0
Double Spring 5/7/26 72.1   2.9 37.9   0.5 87   4 22   1 5.2   0.6 NW | 320 27.0   7.0 NW | 318 1224 0.00 0.90 2.44 31.0   0.4 60.2   2.4 11   6 12.6   0.0
North Topaz Lake 5/7/26 75.1   4.3 54.5   7.2 49   22 19   2 5.4   2.1 W | 270 23.1   7.2 WSW | 242 1233 0.00 0.59 1.68 9.5   0.2 67.2   4.9 8   7 12.6   0.1
Wild Oat Mountain 5/7/26 73.2   3.9 53.7   6.7 49   21 20   4 6.1   2.9 WNW | 293 26.3   10.8 W | 264 1735 0.00 0.52 1.77 16.8   0.2 65.2   3.3 8   5 12.6   0.1
Smith Valley 5/7/26 80.4   5.9 49.3   5.4 70   15 17   7 4.6   0.9 WNW | 290 24.2   8.8 W | 264 1724 0.00 0.51 1.37 5.8   0.0 66.8   2.5 10   9 12.6   0.0
Pine Grove Mountain 5/7/26 64.8   5.3 49.0   5.0 54   10 23   6 9.2   4.1 WSW | 247 29.2   12.2 WNW | 287 1729 0.00 0.57 0.91 22.3   1.1 60.2   6.8 8   10 12.7   0.0
Paradise Hill 5/7/26 81.7   5.2 45.6   0.7 46   13 15   2 8.4   4.7 WNW | 299 33.4   14.4 W | 272 1426 0.00 0.00 2.33 8.0   0.0 69.9   1.9 6   0 12.6   0.0
Winnemucca 5/7/26 81.2   5.1 53.1   9.2 38   36 14   1 9.0   4.4 SW | 226 34.6   18.8 WSW | 252 1313 0.00 0.00 2.90 6.0   0.0 74.8   5.2 2   1 12.6   0.0
NE Elko 5/7/26 76.4   4.1 37.9   5.2 61   33 18   0 7.0   3.0 W | 277 31.6   8.3 WSW | 251 1244 0.00 0.04 2.33 12.4   0.0 61.8   4.3 6   4 12.6   0.0
North Elko 5/7/26 74.7   5.5 49.1   9.7 51   39 20   2 8.3   2.5 W | 270 34.0   9.4 W | 266 1334 0.00 0.44 2.48 28.4   0.1 64.7   5.7 7   5 12.6   0.1
South Elko 5/7/26 - 55.3   10.5 88   12 19   8 9.1   4.4 W | 270 31.4   10.3 WNW | 296 1459 0.00 0.04 2.71 18.5   0.1 64.9   6.6 6   13 12.6   0.1
Lamoille 1/27/26 42.4   2.7 21.5   6.4 60   0 25   6 2.6   0.5 SE | 125 8.2   4.1 SE | 139 0137 0.00 0.00 0.67 12.3   0.2 26.9   1.3 11   0 8.5   2.8
Reid Gardner Sub 5/5/26 77.9   2.7 54.6   9.7 48   11 18   3 4.5   4.0 SSW | 203 15.5   10.7 SE | 134 1426 0.00 0.00 0.56 24.6   0.3 74.6   1.3 2   0 12.6   0.0
Corn Creek 5/7/26 89.7   6.7 62.1   3.1 29   7 10   6 4.6   4.0 WSW | 237 20.1   3.3 NW | 319 1525 0.00 0.00 0.63 3.9   0.0 80.4   6.0 2   0 12.6   0.0
Lucky Strike 5/7/26 77.5   6.4 57.1   4.2 32   11 10   6 5.3   4.8 WSW | 246 19.8   9.8 NNE | 14 1151 0.00 0.00 1.21 4.5   0.1 72.7   6.2 3   1 12.6   0.0
Lower Angel Peak 5/7/26 72.3   7.0 46.0   3.9 49   12 14   7 4.8   0.6 SW | 218 18.8   6.5 NNW | 328 1232 0.00 0.00 1.93 10.1   0.1 63.7   5.9 3   1 12.6   0.0
Angel Peak 5/7/26 63.4   7.2 46.4   9.8 46   26 17   8 5.7   0.5 NW | 312 27.1   4.1 WNW | 297 0005 0.00 0.02 84.72 3.5   0.1 59.1   8.2 6   1 12.5   0.1
Upper Kyle Canyon 5/7/26 66.5   6.8 44.0   4.8 44   19 16   2 4.5   0.2 NNW | 339 17.0   6.0 WNW | 300 1745 0.00 0.00 5.08 13.5   0.1 62.5   3.3 6   1 12.7   0.0
Mt Charleston 5/7/26 66.9   6.3 46.2   7.6 44   21 19   2 2.6   0.2 WSW | 255 13.4   6.2 ESE | 102 1059 0.00 0.00 5.28 18.2   0.0 63.6   4.7 28   1 12.6   0.0
Mid Kyle Canyon 5/7/26 72.6   6.3 48.8   7.3 40   21 17   2 8.0   0.4 NNW | 344 20.2   5.1 ESE | 121 1525 0.00 0.00 2.08 7.0   0.0 71.2   8.9 6   1 12.8   0.1
Blue Diamond 5/7/26 87.0   7.8 50.1   5.8 42   2 11   9 3.9   0.9 WNW | 302 18.5   0.2 W | 278 1947 0.00 0.00 0.85 3.1   0.1 75.9 4 12.6   0.2
Artesian Sub 5/7/26 95.5   7.7 66.4   2.8 27   11 10   7 1.6   0.4 E | 79 10.7   2.0 SSE | 151 1741 0.00 0.00 0.35 13.2   0.0 - 0   0 12.7   0.0
North Henderson 5/7/26 94.5   7.1 65.3   2.6 37   1 10   7 2.5   0.9 NE | 55 12.3   3.8 NW | 324 1506 0.00 0.00 0.52 8.8   0.0 85.0   5.2 5   0 12.7   0.0
Sandy Valley 5/7/26 90.0   8.0 59.3   5.8 38   16 14   8 4.9   1.0 NW | 308 19.1   2.5 WSW | 244 1506 0.00 0.00 0.62 4.5   0.1 86.5   13.5 3   1 12.7   0.0
Searchlight 5/7/26 86.9   8.7 56.2   8.4 36   23 12   7 5.6   1.7 N | 9 22.6   0.7 NNE | 28 1340 0.00 0.00 0.51 4.7   0.1 78.2   6.3 1   1 12.6   0.1
Laughlin 5/7/26 99.7   7.4 68.9   6.5 34   12 8   5 7.7   4.1 N | 1 23.0   4.2 N | 4 1304 0.00 0.00 0.29 4.2   0.1 94.6   15.1 3   1 12.8   0.0
31Mission Hills 5/7/26 91.2   7.6 67.9   8.2 22   16 11   5 4.5   1.5 NNW | 344 17.9   4.0 N | 5 1550 0.00 - 0.00 3.8   0.0 84.5   6.7 6   1 13.2   0.1
32 Enterprise Sierra Cliffs 5/7/26 88.8   7.1 66.9   6.0 26   9 10   7 6.5   0.7 SW | 236 18.5   3.7 WSW | 253 0040 0.00 - 0.00 2.3   0.0 81.7   7.2 6   0 13.1   0.1
Max   99.7 68.9 98 52 18.4 - 37.6 - - 0.01 - 84.72 45.0 94.6 28 13.2
Avg   - - - - 5.6 - - - - - - - 13.2 62.4 8 -
Min   61.8 36.9 22 8 0.0 - 6.6 - - 0.00 - 0.00 1.8 -17.7 0 12.3